Terminal Aerodrome Forecast
Issued by NWS Jackson, MS

Home | Current Version | Previous Version | Text Only | Print | Product List | Glossary On
Versions: 1 2 3 4 5 6 7 8 9 10 11 12
000
FTUS44 KJAN 181700
TAFGLH
TAF
KGLH 181720Z 1818/1918 10007KT P6SM OVC070
     FM190100 04003KT P6SM SCT100
     FM190900 04002KT 4SM BR SKC
     FM191500 01005KT P6SM SKC=

USA.gov is the U.S. government's official web portal to all federal, state and local government web resources and services.